createdAt,value
2023-04-22T00:00:54.327Z,13.83
2023-04-22T00:03:22.206Z,12.87
2023-04-22T00:05:48.613Z,15.00
2023-04-22T00:08:14.861Z,17.50
2023-04-22T00:10:40.986Z,16.07
2023-04-22T00:13:07.096Z,12.73
2023-04-22T00:15:33.941Z,14.67
2023-04-22T00:18:00.780Z,11.27
2023-04-22T00:20:26.930Z,14.37
2023-04-22T00:22:53.045Z,18.83
2023-04-22T00:25:19.245Z,12.03
2023-04-22T00:27:45.388Z,14.63
2023-04-22T00:30:12.154Z,13.07
2023-04-22T00:32:38.347Z,13.60
2023-04-22T00:35:06.308Z,12.47
2023-04-22T00:37:32.430Z,16.47
2023-04-22T00:39:58.609Z,10.90
2023-04-22T00:42:25.029Z,12.37
2023-04-22T00:44:51.709Z,10.97
2023-04-22T00:47:18.668Z,10.90
2023-04-22T00:49:44.820Z,12.87
2023-04-22T00:52:11.579Z,12.03
2023-04-22T00:54:37.725Z,11.27
2023-04-22T00:57:04.995Z,9.93
2023-04-22T00:59:31.238Z,9.50
2023-04-22T01:01:57.658Z,9.83
2023-04-22T01:04:24.138Z,11.57
2023-04-22T01:06:51.447Z,13.43
2023-04-22T01:09:19.215Z,11.00
2023-04-22T01:11:46.073Z,11.60
2023-04-22T01:14:12.293Z,13.57
2023-04-22T01:16:39.274Z,8.17
2023-04-22T01:19:05.903Z,9.57
2023-04-22T01:21:33.562Z,9.53
2023-04-22T01:24:00.494Z,9.50
2023-04-22T01:26:26.833Z,9.43
2023-04-22T01:28:53.201Z,9.17
2023-04-22T01:31:19.438Z,7.83
2023-04-22T01:33:45.852Z,8.30
2023-04-22T01:36:13.168Z,8.73
2023-04-22T01:42:39.372Z,8.90
2023-04-22T01:45:06.698Z,8.40
2023-04-22T01:47:32.842Z,9.27
2023-04-22T01:49:59.090Z,7.27
2023-04-22T01:52:26.575Z,8.57
2023-04-22T01:54:52.708Z,7.03
2023-04-22T01:57:18.950Z,6.87
2023-04-22T01:59:45.741Z,10.63
2023-04-22T02:02:11.929Z,7.63
2023-04-22T02:04:38.116Z,6.37
2023-04-22T02:07:04.260Z,8.03
2023-04-22T02:09:30.364Z,6.87
2023-04-22T02:11:56.632Z,7.20
2023-04-22T02:14:22.747Z,7.83
2023-04-22T02:16:49.515Z,7.50
2023-04-22T02:19:15.631Z,7.10
2023-04-22T02:21:41.747Z,7.40
2023-04-22T02:24:08.094Z,6.60
2023-04-22T02:26:34.401Z,8.07
2023-04-22T02:29:00.838Z,8.90
2023-04-22T02:31:27.158Z,7.13
2023-04-22T02:33:54.972Z,7.07
2023-04-22T02:36:21.115Z,7.63
2023-04-22T02:38:48.461Z,10.80
2023-04-22T02:41:14.619Z,10.57
2023-04-22T02:43:45.123Z,7.10
2023-04-22T02:46:12.303Z,9.83
2023-04-22T02:48:38.795Z,8.73
2023-04-22T02:51:06.341Z,8.50
2023-04-22T02:53:32.491Z,8.13
2023-04-22T02:55:58.780Z,5.97
2023-04-22T02:58:25.713Z,10.87
2023-04-22T03:00:51.964Z,8.03
2023-04-22T03:03:18.320Z,8.03
2023-04-22T03:05:44.467Z,6.40
2023-04-22T03:08:11.228Z,5.90
2023-04-22T03:10:37.369Z,6.17
2023-04-22T03:13:03.468Z,7.77
2023-04-22T03:15:30.324Z,11.97
2023-04-22T03:17:56.643Z,7.00
2023-04-22T03:20:22.902Z,6.07
2023-04-22T03:22:49.028Z,5.97
2023-04-22T03:25:15.956Z,6.10
2023-04-22T03:27:42.148Z,7.30
2023-04-22T03:30:09.071Z,5.83
2023-04-22T03:32:35.231Z,6.77
2023-04-22T03:35:01.426Z,5.53
2023-04-22T03:37:27.682Z,8.50
2023-04-22T03:39:53.789Z,5.33
2023-04-22T03:42:20.666Z,6.60
2023-04-22T03:44:46.909Z,5.60
2023-04-22T03:47:13.072Z,5.87
2023-04-22T03:49:39.801Z,7.83
2023-04-22T03:52:06.189Z,5.63
2023-04-22T03:54:32.388Z,5.33
2023-04-22T03:56:58.542Z,5.83
2023-04-22T03:59:25.382Z,4.57
2023-04-22T04:01:52.524Z,5.50
2023-04-22T04:04:19.092Z,10.13
2023-04-22T04:06:45.763Z,5.73
2023-04-22T04:09:11.923Z,5.00
2023-04-22T04:11:38.047Z,11.17
2023-04-22T04:14:04.360Z,5.37
2023-04-22T04:16:31.140Z,7.80
2023-04-22T04:18:57.361Z,6.60
2023-04-22T04:21:23.469Z,7.33
2023-04-22T04:23:49.575Z,7.07
2023-04-22T04:26:15.858Z,4.50
2023-04-22T04:28:42.004Z,6.40
2023-04-22T04:31:08.173Z,7.10
2023-04-22T04:33:36.167Z,5.43
2023-04-22T04:36:02.703Z,4.70
2023-04-22T04:38:28.861Z,6.03
2023-04-22T04:40:54.969Z,6.33
2023-04-22T04:43:24.906Z,5.47
2023-04-22T04:45:51.190Z,7.33
2023-04-22T04:48:19.050Z,5.10
2023-04-22T04:50:46.337Z,6.80
2023-04-22T04:53:12.779Z,6.20
2023-04-22T04:55:39.296Z,5.00
2023-04-22T04:58:05.444Z,5.47
2023-04-22T05:00:31.599Z,6.70
2023-04-22T05:02:57.832Z,6.63
2023-04-22T05:05:24.041Z,4.77
2023-04-22T05:07:52.909Z,7.50
2023-04-22T05:10:19.170Z,7.17
2023-04-22T05:12:46.945Z,4.37
2023-04-22T05:15:13.217Z,5.17
2023-04-22T05:17:39.611Z,5.13
2023-04-22T05:20:06.804Z,5.30
2023-04-22T05:22:34.431Z,6.57
2023-04-22T05:25:01.166Z,3.70
2023-04-22T05:27:27.331Z,3.80
2023-04-22T05:29:53.555Z,3.77
2023-04-22T05:32:20.082Z,4.60
2023-04-22T05:34:46.237Z,3.67
2023-04-22T05:37:12.407Z,3.60
2023-04-22T05:39:38.749Z,6.30
2023-04-22T05:42:05.761Z,3.67
2023-04-22T05:44:31.923Z,3.90
2023-04-22T05:46:58.032Z,3.50
2023-04-22T05:49:24.273Z,3.33
2023-04-22T05:51:50.518Z,3.70
2023-04-22T05:54:16.680Z,4.40
2023-04-22T05:56:42.919Z,5.03
2023-04-22T05:59:09.657Z,3.00
2023-04-22T06:01:36.225Z,4.33
2023-04-22T06:04:04.480Z,3.37
2023-04-22T06:06:31.337Z,2.93
2023-04-22T06:08:57.727Z,5.93
2023-04-22T06:11:24.002Z,4.83
2023-04-22T06:13:50.544Z,3.27
2023-04-22T06:16:17.348Z,2.83
2023-04-22T06:18:43.533Z,3.20
2023-04-22T06:21:10.109Z,4.77
2023-04-22T06:23:36.234Z,2.97
2023-04-22T06:26:02.637Z,3.07
2023-04-22T06:28:28.791Z,2.90
2023-04-22T06:30:54.977Z,5.87
2023-04-22T06:33:21.794Z,2.83
2023-04-22T06:35:48.085Z,5.70
2023-04-22T06:38:14.220Z,2.67
2023-04-22T06:40:40.371Z,2.83
2023-04-22T06:43:06.641Z,2.43
2023-04-22T06:45:32.735Z,3.00
2023-04-22T06:47:59.022Z,4.23
2023-04-22T06:50:26.087Z,8.83
2023-04-22T06:52:53.031Z,2.70
2023-04-22T06:55:19.461Z,4.27
2023-04-22T06:57:45.613Z,2.67
2023-04-22T07:00:12.793Z,2.03
2023-04-22T07:02:39.074Z,2.37
2023-04-22T07:05:05.598Z,2.27
2023-04-22T07:07:32.476Z,2.17
2023-04-22T07:09:58.750Z,2.73
2023-04-22T07:12:25.565Z,2.23
2023-04-22T07:14:51.703Z,4.43
2023-04-22T07:17:21.436Z,3.00
2023-04-22T07:19:47.583Z,2.30
2023-04-22T07:22:13.793Z,5.07
2023-04-22T07:24:40.586Z,2.30
2023-04-22T07:27:06.815Z,3.33
2023-04-22T07:29:33.140Z,2.70
2023-04-22T07:31:59.602Z,2.00
2023-04-22T07:34:25.978Z,2.20
2023-04-22T07:36:52.817Z,2.83
2023-04-22T07:39:19.112Z,3.80
2023-04-22T07:41:45.871Z,2.27
2023-04-22T07:44:15.674Z,4.60
2023-04-22T07:46:42.131Z,4.27
2023-04-22T07:49:08.345Z,2.50
2023-04-22T07:51:34.733Z,2.10
2023-04-22T07:54:01.041Z,3.03
2023-04-22T07:56:27.172Z,2.10
2023-04-22T07:58:54.071Z,4.10
2023-04-22T08:01:20.392Z,2.80
2023-04-22T08:03:46.949Z,4.30
2023-04-22T08:06:13.283Z,4.20
2023-04-22T08:08:39.773Z,6.93
2023-04-22T08:11:06.537Z,2.90
2023-04-22T08:13:32.817Z,2.93
2023-04-22T08:16:02.289Z,2.27
2023-04-22T08:18:28.535Z,4.90
2023-04-22T08:20:55.127Z,2.13
2023-04-22T08:23:21.584Z,2.30
2023-04-22T08:25:47.932Z,2.57
2023-04-22T08:28:14.278Z,4.50
2023-04-22T08:30:40.438Z,2.00
2023-04-22T08:33:07.200Z,5.10
2023-04-22T08:35:34.137Z,2.13
2023-04-22T08:38:00.253Z,2.40
2023-04-22T08:40:26.807Z,2.67
2023-04-22T08:42:53.971Z,2.23
2023-04-22T08:45:21.291Z,2.27
2023-04-22T08:47:48.404Z,3.30
2023-04-22T08:50:15.374Z,1.90
2023-04-22T08:52:41.877Z,3.23
2023-04-22T08:55:08.541Z,2.97
2023-04-22T08:57:35.635Z,1.80
2023-04-22T09:00:02.756Z,2.30
2023-04-22T09:02:31.082Z,3.30
2023-04-22T09:04:58.140Z,8.57
2023-04-22T09:07:27.144Z,3.20
2023-04-22T09:09:54.695Z,1.80
2023-04-22T09:12:20.851Z,2.30
2023-04-22T09:14:47.204Z,2.33
2023-04-22T09:17:15.463Z,2.00
2023-04-22T09:19:41.757Z,3.13
2023-04-22T09:22:10.154Z,3.13
2023-04-22T09:24:36.924Z,2.10
2023-04-22T09:27:03.067Z,6.87
2023-04-22T09:29:30.199Z,2.80
2023-04-22T09:32:10.192Z,3.63
2023-04-22T09:34:46.493Z,2.80
2023-04-22T09:37:12.634Z,3.43
2023-04-22T09:39:41.824Z,2.60
2023-04-22T09:42:08.218Z,2.63
2023-04-22T09:44:34.769Z,2.47
2023-04-22T09:47:00.964Z,7.63
2023-04-22T09:49:27.375Z,9.07
2023-04-22T09:51:55.978Z,3.33
2023-04-22T09:54:23.114Z,3.03
2023-04-22T09:56:51.099Z,2.33
2023-04-22T09:59:21.420Z,5.17
2023-04-22T10:01:48.158Z,6.83
2023-04-22T10:04:15.307Z,2.87
2023-04-22T10:06:41.791Z,4.07
2023-04-22T10:09:09.516Z,2.37
2023-04-22T10:11:36.806Z,2.27
2023-04-22T10:14:04.517Z,3.10
2023-04-22T10:16:32.510Z,2.10
2023-04-22T10:19:01.545Z,2.93
2023-04-22T10:21:29.309Z,3.37
2023-04-22T10:23:58.346Z,2.23
2023-04-22T10:26:41.680Z,2.50
2023-04-22T10:29:10.024Z,5.77
2023-04-22T10:31:38.090Z,4.53
2023-04-22T10:34:12.272Z,6.83
2023-04-22T10:36:55.510Z,3.87
2023-04-22T10:39:22.525Z,4.20
2023-04-22T10:41:53.479Z,4.90
2023-04-22T10:44:21.214Z,4.43
2023-04-22T10:46:57.714Z,8.30
2023-04-22T10:49:25.428Z,4.53
2023-04-22T10:51:52.777Z,4.93
2023-04-22T10:54:57.130Z,3.43
2023-04-22T10:57:32.591Z,3.17
2023-04-22T10:59:59.851Z,2.93
2023-04-22T11:02:26.609Z,5.20
2023-04-22T11:05:19.738Z,3.50
2023-04-22T11:07:48.692Z,7.67
2023-04-22T11:10:31.628Z,6.20
2023-04-22T11:12:57.814Z,2.00
2023-04-22T11:15:24.212Z,2.23
2023-04-22T11:17:51.737Z,3.73
2023-04-22T11:20:18.144Z,4.10
2023-04-22T11:22:46.660Z,3.83
2023-04-22T11:25:12.912Z,3.07
2023-04-22T11:27:40.544Z,7.70
2023-04-22T11:30:08.674Z,4.33
2023-04-22T11:32:35.258Z,9.23
2023-04-22T11:35:03.196Z,3.93
2023-04-22T11:37:29.328Z,3.80
2023-04-22T11:42:27.927Z,2.80
2023-04-22T11:44:54.043Z,3.13
2023-04-22T11:47:20.156Z,4.33
2023-04-22T11:49:55.202Z,5.93
2023-04-22T11:52:21.483Z,2.57
2023-04-22T11:54:47.619Z,5.17
2023-04-22T11:57:16.913Z,7.70
2023-04-22T11:59:43.529Z,2.30
2023-04-22T12:02:09.835Z,3.70
2023-04-22T12:04:37.471Z,3.03
2023-04-22T12:07:03.709Z,4.83
2023-04-22T12:09:29.840Z,5.27
2023-04-22T12:11:56.038Z,2.40
2023-04-22T12:14:31.009Z,4.83
2023-04-22T12:16:57.144Z,3.90
2023-04-22T18:28:47.078Z,6.20
2023-04-22T18:31:13.651Z,3.33
2023-04-22T18:33:40.135Z,6.27
2023-04-22T18:36:06.725Z,7.03
2023-04-22T18:38:32.847Z,11.23
2023-04-22T18:40:59.070Z,5.57
2023-04-22T18:43:25.238Z,10.80
2023-04-22T18:45:52.081Z,10.50
2023-04-22T18:48:19.502Z,8.00
2023-04-22T18:50:45.662Z,6.73
2023-04-22T18:53:11.843Z,6.20
2023-04-22T18:55:38.264Z,10.73
2023-04-22T18:58:04.387Z,7.63
2023-04-22T19:00:31.056Z,5.20
2023-04-22T19:02:57.998Z,8.70
2023-04-22T19:05:24.430Z,7.43
2023-04-22T19:07:51.145Z,8.13
2023-04-22T19:10:17.870Z,10.30
2023-04-22T19:12:44.021Z,6.53
2023-04-22T19:15:10.915Z,10.33
2023-04-22T19:17:37.782Z,4.27
2023-04-22T19:20:06.197Z,10.70
2023-04-22T19:22:32.555Z,5.43
2023-04-22T19:24:58.811Z,3.87
2023-04-22T19:27:25.086Z,7.60
2023-04-22T19:29:52.685Z,7.67
2023-04-22T19:32:19.212Z,7.07
2023-04-22T19:34:46.479Z,6.27
2023-04-22T19:37:13.421Z,7.47
2023-04-22T19:39:39.816Z,7.70
2023-04-22T19:42:06.280Z,10.13
2023-04-22T19:44:32.468Z,7.60
2023-04-22T19:46:58.684Z,9.40
2023-04-22T19:49:25.633Z,11.57
2023-04-22T19:51:52.157Z,10.13
2023-04-22T19:54:20.710Z,9.87
2023-04-22T19:56:47.613Z,11.33
2023-04-22T19:59:13.959Z,10.10
2023-04-22T20:01:40.690Z,9.87
2023-04-22T20:04:07.786Z,10.47
2023-04-22T20:06:34.358Z,10.07
2023-04-22T20:09:00.840Z,12.77
2023-04-22T20:11:28.696Z,11.47
2023-04-22T20:13:55.058Z,11.30
2023-04-22T20:16:22.828Z,14.43
2023-04-22T20:18:51.627Z,13.87
2023-04-22T20:21:18.863Z,11.90
2023-04-22T20:23:45.119Z,12.50
2023-04-22T20:26:12.016Z,14.90
2023-04-22T20:28:44.219Z,15.70
2023-04-22T20:31:10.654Z,13.20
2023-04-22T20:33:37.540Z,13.50
2023-04-22T20:36:05.251Z,14.50
2023-04-22T20:38:31.903Z,13.80
2023-04-22T20:41:00.925Z,15.23
2023-04-22T20:43:27.087Z,14.77
2023-04-22T20:45:53.863Z,14.00
2023-04-22T20:48:20.233Z,15.27
2023-04-22T20:50:46.492Z,14.57
2023-04-22T20:53:13.738Z,16.03
2023-04-22T20:55:40.391Z,13.70
2023-04-22T20:58:06.549Z,14.97
2023-04-22T21:00:32.726Z,16.30
2023-04-22T21:02:59.913Z,13.20
2023-04-22T21:05:27.162Z,14.77
2023-04-22T21:07:54.293Z,13.63
2023-04-22T21:10:21.309Z,15.27
2023-04-22T21:12:48.009Z,15.93
2023-04-22T21:15:14.976Z,15.50
2023-04-22T21:17:43.819Z,14.30
2023-04-22T21:20:11.463Z,16.03
2023-04-22T21:22:41.968Z,15.70
2023-04-22T21:25:09.547Z,14.50
2023-04-22T21:27:36.314Z,16.60
2023-04-22T21:30:02.986Z,16.53
2023-04-22T21:32:29.432Z,17.53
2023-04-22T21:34:56.248Z,16.97
2023-04-22T21:37:23.571Z,15.90
2023-04-22T21:39:49.665Z,16.27
2023-04-22T21:42:15.799Z,16.37
2023-04-22T21:44:48.593Z,15.87
2023-04-22T21:47:14.925Z,19.90
2023-04-22T21:49:41.040Z,17.40
2023-04-22T21:52:07.189Z,15.73
2023-04-22T21:54:34.160Z,16.40
2023-04-22T21:57:00.618Z,16.03
2023-04-22T21:59:26.746Z,15.30
2023-04-22T22:01:53.046Z,15.90
2023-04-22T22:04:19.722Z,18.83
2023-04-22T22:06:46.052Z,16.57
2023-04-22T22:09:12.874Z,19.37
2023-04-22T22:11:39.771Z,16.40
2023-04-22T22:14:06.394Z,19.50
2023-04-22T22:16:32.677Z,17.37
2023-04-22T22:19:01.705Z,19.70
2023-04-22T22:21:27.831Z,20.23
2023-04-22T22:23:54.074Z,17.30
2023-04-22T22:26:20.247Z,18.03
2023-04-22T22:28:47.012Z,18.73
2023-04-22T22:31:13.902Z,20.03
2023-04-22T22:33:40.731Z,17.33
2023-04-22T22:36:08.049Z,18.23
2023-04-22T22:38:34.164Z,17.47
2023-04-22T22:41:00.305Z,18.90
2023-04-22T22:43:26.462Z,19.87
2023-04-22T22:45:53.268Z,19.33
2023-04-22T22:48:19.604Z,18.00
2023-04-22T22:50:45.902Z,19.47
2023-04-22T22:53:12.063Z,19.90
2023-04-22T22:55:38.193Z,20.40
2023-04-22T22:58:04.284Z,23.27
2023-04-22T23:00:30.392Z,19.93
2023-04-22T23:02:57.269Z,22.80
2023-04-22T23:05:23.456Z,21.90
2023-04-22T23:07:49.579Z,21.43
2023-04-22T23:10:15.777Z,19.73
2023-04-22T23:12:42.154Z,26.27
2023-04-22T23:15:09.090Z,19.17
2023-04-22T23:17:35.679Z,21.47
2023-04-22T23:20:03.108Z,22.40
2023-04-22T23:22:29.970Z,22.17
2023-04-22T23:24:56.655Z,25.63
2023-04-22T23:27:23.183Z,22.27
2023-04-22T23:29:49.758Z,27.90
2023-04-22T23:32:19.400Z,22.87
2023-04-22T23:34:48.761Z,26.40
2023-04-22T23:37:15.882Z,22.10
2023-04-22T23:39:42.351Z,24.93
2023-04-22T23:42:08.541Z,23.93
2023-04-22T23:44:35.026Z,22.70
2023-04-22T23:47:01.201Z,23.30
2023-04-22T23:49:28.108Z,24.20
2023-04-22T23:51:54.925Z,24.03
2023-04-22T23:54:22.075Z,24.87
2023-04-22T23:56:48.696Z,26.43
2023-04-22T23:59:15.356Z,24.43
